Time;durP1;ratioP1;P1;durP2;ratioP2;P2;SDS_P1;SDS_P2;PMS_P1;PMS_P2;Temp;Humidity;BMP_temperature;BMP_pressure;BME280_temperature;BME280_humidity;BME280_pressure;Samples;Min_cycle;Max_cycle;Signal;HPM_P1;HPM_P2
2022/03/02 00:00:28;;;;;;;13.70;4.97;;;8.60;1.00;;;;;;5070871;28;20206;-76
2022/03/02 00:02:55;;;;;;;10.80;6.47;;;8.50;1.00;;;;;;5072613;28;20245;-73
2022/03/02 00:05:24;;;;;;;7.83;4.97;;;8.60;1.00;;;;;;5074258;28;20744;-74
2022/03/02 00:07:51;;;;;;;10.43;4.77;;;8.50;1.00;;;;;;5074733;28;20244;-75
2022/03/02 00:10:18;;;;;;;10.30;4.63;;;8.50;1.00;;;;;;5079931;28;20201;-75
2022/03/02 00:12:45;;;;;;;9.20;4.73;;;8.50;1.00;;;;;;5093633;28;20231;-78
2022/03/02 00:15:14;;;;;;;11.33;5.37;;;8.60;1.00;;;;;;5073445;28;20702;-74
2022/03/02 00:17:41;;;;;;;15.47;5.17;;;8.60;1.00;;;;;;5082585;28;20205;-74
2022/03/02 00:20:08;;;;;;;10.83;4.70;;;8.60;1.00;;;;;;5076262;28;20630;-74
2022/03/02 00:22:36;;;;;;;13.03;5.13;;;8.60;1.00;;;;;;5073076;28;20259;-75
2022/03/02 00:25:03;;;;;;;7.97;4.00;;;8.60;1.00;;;;;;5072728;28;20255;-76
2022/03/02 00:27:30;;;;;;;8.67;4.63;;;8.60;1.00;;;;;;5073162;28;20202;-76
2022/03/02 00:29:57;;;;;;;11.73;4.00;;;8.60;1.00;;;;;;5075231;28;20235;-76
2022/03/02 00:32:26;;;;;;;10.90;4.23;;;8.60;1.00;;;;;;5093232;28;20734;-76
2022/03/02 00:34:53;;;;;;;12.00;5.60;;;8.60;1.00;;;;;;5082322;28;20721;-75
2022/03/02 00:37:20;;;;;;;12.10;5.00;;;8.70;1.00;;;;;;5071695;28;20203;-76
2022/03/02 00:39:47;;;;;;;10.57;4.60;;;8.60;1.00;;;;;;5074127;28;20263;-76
2022/03/02 00:42:14;;;;;;;15.10;5.33;;;8.70;1.00;;;;;;5086071;28;20199;-75
2022/03/02 00:44:41;;;;;;;8.10;4.60;;;8.60;1.00;;;;;;5077706;28;20738;-74
2022/03/02 00:47:09;;;;;;;11.47;5.53;;;8.70;1.00;;;;;;5085714;28;20197;-74
2022/03/02 00:49:38;;;;;;;9.13;4.87;;;8.70;1.00;;;;;;5077522;28;20210;-74
2022/03/02 00:52:06;;;;;;;7.23;5.63;;;8.60;1.00;;;;;;5092374;28;20625;-77
2022/03/02 00:54:33;;;;;;;12.03;5.03;;;8.50;1.00;;;;;;5087661;28;20256;-77
2022/03/02 00:57:00;;;;;;;9.30;4.50;;;8.40;1.00;;;;;;5068444;28;20668;-78
2022/03/02 00:59:27;;;;;;;12.53;4.97;;;8.40;1.00;;;;;;5072486;28;20194;-75
2022/03/02 01:01:54;;;;;;;12.90;5.73;;;8.50;1.00;;;;;;5071769;28;20206;-76
2022/03/02 01:04:21;;;;;;;14.37;6.17;;;8.40;1.00;;;;;;5073571;28;20218;-74
2022/03/02 01:06:50;;;;;;;9.47;4.77;;;8.40;1.00;;;;;;5090573;28;20210;-77
2022/03/02 01:09:17;;;;;;;13.00;6.60;;;8.40;1.00;;;;;;5075943;28;20688;-72
2022/03/02 01:11:44;;;;;;;9.07;4.87;;;8.60;1.00;;;;;;5075449;28;20209;-72
2022/03/02 01:14:11;;;;;;;10.17;5.07;;;8.50;1.00;;;;;;5079808;28;20306;-78
2022/03/02 01:16:38;;;;;;;14.43;4.93;;;8.50;1.00;;;;;;5072160;28;20206;-72
2022/03/02 01:19:05;;;;;;;14.37;4.83;;;8.40;1.00;;;;;;5071080;28;20198;-73
2022/03/02 01:21:32;;;;;;;14.43;5.83;;;8.50;1.00;;;;;;5071856;28;20202;-75
2022/03/02 01:24:02;;;;;;;7.10;4.27;;;8.50;1.00;;;;;;5071926;28;20242;-73
2022/03/02 01:26:29;;;;;;;9.97;4.60;;;8.60;1.00;;;;;;5072017;28;20267;-72
2022/03/02 01:28:57;;;;;;;17.83;4.80;;;8.50;1.00;;;;;;5068282;28;20241;-73
2022/03/02 01:31:25;;;;;;;9.50;5.43;;;8.60;1.00;;;;;;5071614;28;20210;-71
2022/03/02 01:33:53;;;;;;;15.17;5.87;;;8.60;1.00;;;;;;5072282;28;20226;-73
2022/03/02 01:36:20;;;;;;;9.90;5.30;;;8.50;1.00;;;;;;5072171;28;20207;-74
2022/03/02 01:38:48;;;;;;;9.17;4.67;;;8.50;1.00;;;;;;5071687;28;20260;-74
2022/03/02 01:41:17;;;;;;;10.20;5.17;;;8.50;1.00;;;;;;5072387;28;20569;-76
2022/03/02 01:43:44;;;;;;;10.87;4.80;;;8.50;1.00;;;;;;5068442;28;20206;-76
2022/03/02 01:46:12;;;;;;;11.63;5.77;;;8.50;1.00;;;;;;5077334;28;20618;-73
2022/03/02 01:48:39;;;;;;;12.37;4.20;;;8.50;1.00;;;;;;5071214;28;20197;-74
2022/03/02 01:51:06;;;;;;;13.43;4.80;;;8.60;1.00;;;;;;5082423;28;20202;-72
2022/03/02 01:53:34;;;;;;;8.37;5.13;;;8.50;1.00;;;;;;5071320;28;20702;-73
2022/03/02 01:56:01;;;;;;;13.77;5.10;;;8.50;1.00;;;;;;5071433;28;20207;-73
2022/03/02 01:58:30;;;;;;;9.33;5.07;;;8.50;1.00;;;;;;5055169;28;20281;-73
2022/03/02 02:00:59;;;;;;;13.03;4.83;;;8.60;1.00;;;;;;5070681;28;20751;-73
2022/03/02 02:03:27;;;;;;;12.53;5.67;;;8.50;1.00;;;;;;5077687;28;20204;-73
2022/03/02 02:05:55;;;;;;;13.67;5.13;;;8.70;1.00;;;;;;5079429;28;20194;-74
2022/03/02 02:08:23;;;;;;;12.47;5.20;;;8.70;1.00;;;;;;5081725;28;20740;-73
2022/03/02 02:10:51;;;;;;;9.93;5.57;;;8.70;1.00;;;;;;5076212;28;20271;-72
2022/03/02 02:13:18;;;;;;;12.73;5.90;;;8.80;1.00;;;;;;5070679;28;20206;-72
2022/03/02 02:15:46;;;;;;;13.00;4.67;;;8.80;1.00;;;;;;5082683;28;20251;-73
2022/03/02 02:18:13;;;;;;;10.33;5.50;;;8.90;1.00;;;;;;5071790;28;20249;-73
2022/03/02 02:20:42;;;;;;;12.73;6.20;;;8.90;1.00;;;;;;5064765;28;20203;-73
2022/03/02 02:23:09;;;;;;;10.13;4.93;;;8.90;1.00;;;;;;5081345;28;20202;-72
2022/03/02 02:25:36;;;;;;;6.40;4.40;;;8.80;1.00;;;;;;5077086;28;20613;-73
2022/03/02 02:28:03;;;;;;;16.13;4.97;;;8.80;1.00;;;;;;5081039;28;20241;-74
2022/03/02 02:30:31;;;;;;;11.37;6.47;;;8.80;1.00;;;;;;5071046;28;20205;-73
2022/03/02 02:32:58;;;;;;;10.90;5.13;;;8.90;1.00;;;;;;5070306;28;20210;-74
2022/03/02 02:35:26;;;;;;;7.70;5.07;;;8.90;1.00;;;;;;5075288;28;20779;-74
2022/03/02 02:37:55;;;;;;;13.93;5.40;;;9.00;1.00;;;;;;5086668;28;20202;-73
2022/03/02 02:40:23;;;;;;;11.00;5.40;;;9.00;1.00;;;;;;5090281;28;20201;-73
2022/03/02 02:42:50;;;;;;;13.33;5.37;;;9.00;1.00;;;;;;5091813;28;20211;-73
2022/03/02 02:45:20;;;;;;;10.10;5.23;;;9.00;1.00;;;;;;5080862;28;20218;-73
2022/03/02 02:47:47;;;;;;;16.67;5.47;;;9.00;1.00;;;;;;5074537;28;20198;-73
2022/03/02 02:50:17;;;;;;;9.73;5.30;;;9.00;1.00;;;;;;5067549;28;20198;-74
2022/03/02 02:52:44;;;;;;;12.67;5.10;;;9.00;1.00;;;;;;5067359;28;20197;-74
2022/03/02 02:55:13;;;;;;;11.53;5.30;;;8.90;1.00;;;;;;5083276;28;20274;-74
2022/03/02 02:57:41;;;;;;;11.13;4.77;;;8.90;1.00;;;;;;5090924;28;20626;-77
2022/03/02 03:00:12;;;;;;;6.83;4.30;;;9.00;1.00;;;;;;5089822;28;20213;-74
2022/03/02 03:02:39;;;;;;;7.57;5.33;;;8.90;1.00;;;;;;5090864;28;20206;-75
2022/03/02 03:05:11;;;;;;;12.53;4.83;;;9.10;1.00;;;;;;5093831;28;20201;-73
2022/03/02 03:07:39;;;;;;;11.30;5.40;;;9.00;1.00;;;;;;5095147;28;20205;-75
2022/03/02 03:10:07;;;;;;;12.70;6.33;;;9.00;1.00;;;;;;5076811;28;20193;-75
2022/03/02 03:12:35;;;;;;;10.70;5.43;;;9.10;1.00;;;;;;5083857;28;20202;-75
2022/03/02 03:15:06;;;;;;;10.20;4.67;;;9.10;1.00;;;;;;5082415;28;20604;-74
2022/03/02 03:17:34;;;;;;;7.10;3.53;;;9.00;1.00;;;;;;5074416;28;20202;-73
2022/03/02 03:20:01;;;;;;;13.33;6.10;;;9.10;1.00;;;;;;5073702;28;20268;-72
2022/03/02 03:22:28;;;;;;;16.17;5.57;;;9.20;1.00;;;;;;5074519;28;20230;-73
2022/03/02 03:24:55;;;;;;;13.27;5.73;;;9.20;1.00;;;;;;5076509;28;20203;-75
2022/03/02 03:27:22;;;;;;;8.20;4.63;;;9.10;1.00;;;;;;5073894;28;20197;-73
2022/03/02 03:29:51;;;;;;;10.67;4.63;;;9.00;1.00;;;;;;5074361;28;20198;-74
2022/03/02 03:32:17;;;;;;;10.80;4.67;;;9.10;1.00;;;;;;5074168;28;20202;-76
2022/03/02 03:34:45;;;;;;;15.20;4.77;;;9.00;1.00;;;;;;5074028;28;20238;-75
2022/03/02 03:37:12;;;;;;;13.90;5.57;;;9.00;1.00;;;;;;5073702;28;20210;-73
2022/03/02 03:39:39;;;;;;;10.63;5.90;;;9.00;1.00;;;;;;5073675;28;20245;-73
2022/03/02 03:42:06;;;;;;;12.80;4.97;;;8.90;1.00;;;;;;5072914;28;20315;-74
2022/03/02 03:44:33;;;;;;;11.97;5.70;;;8.90;1.00;;;;;;5077590;28;20198;-73
2022/03/02 03:47:01;;;;;;;8.63;5.13;;;8.90;1.00;;;;;;5062876;28;20202;-73
2022/03/02 03:49:28;;;;;;;13.20;5.30;;;8.90;1.00;;;;;;5076709;28;20206;-73
2022/03/02 03:51:56;;;;;;;9.90;4.93;;;8.80;1.00;;;;;;5092793;28;20558;-73
2022/03/02 03:54:23;;;;;;;13.80;6.20;;;8.80;1.00;;;;;;5073852;28;20226;-73
2022/03/02 03:56:50;;;;;;;11.80;5.00;;;8.90;1.00;;;;;;5077581;28;20281;-72
2022/03/02 03:59:17;;;;;;;11.37;5.30;;;8.90;1.00;;;;;;5071582;28;20634;-73
2022/03/02 04:01:44;;;;;;;13.00;6.53;;;9.00;1.00;;;;;;5088834;28;20657;-76
2022/03/02 04:04:13;;;;;;;12.23;5.30;;;8.90;1.00;;;;;;5092645;28;20209;-72
2022/03/02 04:06:40;;;;;;;8.43;5.70;;;8.80;1.00;;;;;;5085822;28;20205;-72
2022/03/02 04:09:07;;;;;;;12.00;5.37;;;8.80;1.00;;;;;;5087656;28;20209;-73
2022/03/02 04:11:34;;;;;;;13.47;7.17;;;9.00;1.00;;;;;;5081454;28;20206;-72
2022/03/02 04:14:01;;;;;;;8.60;5.23;;;9.00;1.00;;;;;;5084427;28;20206;-72
2022/03/02 04:16:28;;;;;;;10.20;4.70;;;8.90;1.00;;;;;;5088046;28;20267;-73
2022/03/02 04:18:55;;;;;;;12.30;5.93;;;8.90;1.00;;;;;;5087592;28;20209;-73
2022/03/02 04:21:23;;;;;;;13.93;6.50;;;8.90;1.00;;;;;;5088205;28;20734;-73
2022/03/02 04:23:50;;;;;;;11.67;5.20;;;8.90;1.00;;;;;;5090544;28;20227;-74
2022/03/02 04:26:17;;;;;;;11.60;5.60;;;8.90;1.00;;;;;;5084052;28;20292;-74
2022/03/02 04:28:44;;;;;;;10.57;6.27;;;8.90;1.00;;;;;;5087688;28;20201;-73
2022/03/02 04:31:11;;;;;;;13.10;5.80;;;9.00;1.00;;;;;;5090827;28;20205;-72
2022/03/02 04:33:38;;;;;;;9.67;6.17;;;9.00;1.00;;;;;;5078955;28;20284;-73
2022/03/02 04:36:06;;;;;;;13.03;5.50;;;9.00;1.00;;;;;;5083624;28;20229;-74
2022/03/02 04:38:35;;;;;;;7.00;4.67;;;8.90;1.00;;;;;;5092565;28;20267;-75
2022/03/02 04:41:02;;;;;;;12.73;5.77;;;9.00;1.00;;;;;;5087114;28;20212;-76
2022/03/02 04:43:29;;;;;;;9.40;5.10;;;9.00;1.00;;;;;;5081587;28;20206;-74
2022/03/02 04:45:57;;;;;;;13.67;5.10;;;9.00;1.00;;;;;;5081206;28;20202;-74
2022/03/02 04:48:25;;;;;;;9.53;5.50;;;9.10;1.00;;;;;;5078291;28;20206;-75
2022/03/02 04:50:52;;;;;;;8.50;4.53;;;9.00;1.00;;;;;;5092368;28;20206;-76
2022/03/02 04:53:23;;;;;;;8.90;5.30;;;8.90;1.00;;;;;;5089683;28;20286;-74
2022/03/02 04:55:52;;;;;;;9.40;5.27;;;8.90;1.00;;;;;;5078045;28;20724;-74
2022/03/02 04:58:20;;;;;;;13.60;5.03;;;8.90;1.00;;;;;;5068309;28;20657;-74
2022/03/02 05:00:47;;;;;;;9.17;4.63;;;8.90;1.00;;;;;;5092345;28;20214;-74
2022/03/02 05:03:15;;;;;;;10.77;4.63;;;8.90;1.00;;;;;;5080872;28;20207;-74
2022/03/02 05:05:42;;;;;;;7.20;4.77;;;9.10;1.00;;;;;;5071247;28;20323;-73
2022/03/02 05:08:09;;;;;;;12.33;5.30;;;9.20;1.00;;;;;;5087027;28;20209;-73
2022/03/02 05:10:36;;;;;;;13.83;6.07;;;9.20;1.00;;;;;;5087256;28;20201;-74
2022/03/02 05:13:05;;;;;;;13.40;6.53;;;9.10;1.00;;;;;;5082887;28;20275;-73
2022/03/02 05:15:32;;;;;;;13.73;6.70;;;9.10;1.00;;;;;;5090962;28;20233;-73
2022/03/02 05:18:00;;;;;;;13.53;6.77;;;9.00;1.00;;;;;;5088599;28;20210;-74
2022/03/02 05:20:27;;;;;;;13.40;6.97;;;8.90;1.00;;;;;;5087244;28;20197;-73
2022/03/02 05:22:54;;;;;;;12.93;5.70;;;9.00;1.00;;;;;;5088125;28;20201;-73
2022/03/02 05:25:24;;;;;;;15.00;7.30;;;9.10;1.00;;;;;;5088168;28;20267;-73
2022/03/02 05:27:51;;;;;;;8.97;5.33;;;9.00;1.00;;;;;;5088114;28;20214;-73
2022/03/02 05:30:20;;;;;;;13.10;5.63;;;9.10;1.00;;;;;;5079261;28;20251;-74
2022/03/02 05:32:49;;;;;;;13.27;6.97;;;9.00;1.00;;;;;;5086271;28;20205;-73
2022/03/02 05:35:16;;;;;;;9.13;5.13;;;9.10;1.00;;;;;;5088078;28;20222;-74
2022/03/02 05:37:43;;;;;;;11.70;5.57;;;9.10;1.00;;;;;;5089555;28;21082;-72
2022/03/02 05:40:13;;;;;;;6.70;4.50;;;9.20;1.00;;;;;;5077154;28;20670;-73
2022/03/02 05:42:40;;;;;;;9.87;5.43;;;9.20;1.00;;;;;;5091490;28;20209;-72
2022/03/02 05:45:09;;;;;;;10.37;5.17;;;9.30;1.00;;;;;;5085914;28;20240;-74
2022/03/02 05:47:37;;;;;;;14.97;6.47;;;9.20;1.00;;;;;;5072335;28;20288;-73
2022/03/02 05:50:06;;;;;;;11.37;6.10;;;9.30;1.00;;;;;;5085480;28;20205;-72
2022/03/02 05:52:33;;;;;;;12.20;5.43;;;9.20;1.00;;;;;;5070258;28;20724;-73
2022/03/02 05:55:00;;;;;;;12.17;6.43;;;9.30;1.00;;;;;;5071893;28;20850;-73
2022/03/02 05:57:27;;;;;;;16.13;5.90;;;9.30;1.00;;;;;;5077283;28;20287;-77
2022/03/02 05:59:54;;;;;;;11.90;6.37;;;9.40;1.00;;;;;;5072520;28;20205;-73
2022/03/02 06:02:21;;;;;;;11.13;5.23;;;9.40;1.00;;;;;;5079198;28;20210;-75
2022/03/02 06:04:50;;;;;;;13.00;5.33;;;9.30;1.00;;;;;;5079258;28;20354;-73
2022/03/02 06:07:17;;;;;;;14.03;6.60;;;9.30;1.00;;;;;;5074982;28;20248;-74
2022/03/02 06:09:44;;;;;;;13.00;6.13;;;9.30;1.00;;;;;;5057747;28;20203;-74
2022/03/02 06:12:13;;;;;;;8.60;5.57;;;9.30;1.00;;;;;;5070531;28;20751;-73
2022/03/02 06:14:40;;;;;;;9.90;5.57;;;9.40;1.00;;;;;;5069960;28;20616;-73
2022/03/02 06:17:09;;;;;;;15.13;6.60;;;9.40;1.00;;;;;;5080967;28;20264;-72
2022/03/02 06:19:36;;;;;;;11.93;5.97;;;9.50;1.00;;;;;;5082928;28;20205;-72
2022/03/02 06:22:06;;;;;;;13.37;7.13;;;9.50;1.00;;;;;;5068779;28;20554;-73
2022/03/02 06:24:34;;;;;;;11.33;7.37;;;9.60;1.00;;;;;;5070868;28;20674;-73
2022/03/02 06:27:01;;;;;;;9.13;5.83;;;9.60;1.00;;;;;;5070749;28;20210;-73
2022/03/02 06:29:28;;;;;;;11.53;7.37;;;9.70;1.00;;;;;;5084833;28;20677;-75
2022/03/02 06:31:55;;;;;;;9.40;6.23;;;9.60;1.00;;;;;;5069160;28;20198;-71
2022/03/02 06:34:22;;;;;;;11.50;6.43;;;9.50;1.00;;;;;;5070785;28;20210;-73
2022/03/02 06:36:50;;;;;;;9.67;6.80;;;9.70;1.00;;;;;;5071298;28;20241;-74
2022/03/02 06:39:21;;;;;;;12.27;7.10;;;9.70;1.00;;;;;;5070843;28;20234;-74
2022/03/02 06:42:05;;;;;;;14.40;7.43;;;9.60;1.00;;;;;;5069277;28;20202;-73
2022/03/02 06:44:34;;;;;;;10.03;5.90;;;9.50;1.00;;;;;;5081024;28;20209;-73
2022/03/02 06:47:09;;;;;;;12.90;6.47;;;9.50;1.00;;;;;;5075906;28;20308;-72
2022/03/02 06:49:46;;;;;;;10.90;6.30;;;9.60;1.00;;;;;;5078995;28;20203;-72
2022/03/02 06:52:18;;;;;;;12.83;6.23;;;9.60;1.00;;;;;;5068456;28;20214;-72
2022/03/02 06:54:50;;;;;;;10.23;6.00;;;9.50;1.00;;;;;;5076499;28;20206;-72
2022/03/02 06:57:19;;;;;;;9.73;6.27;;;9.70;1.00;;;;;;5070261;28;20210;-72
2022/03/02 06:59:53;;;;;;;7.97;5.13;;;9.70;1.00;;;;;;5085115;28;20202;-72
2022/03/02 07:02:28;;;;;;;8.37;5.17;;;9.70;1.00;;;;;;5080069;28;20235;-72
2022/03/02 07:04:58;;;;;;;12.90;6.13;;;9.70;1.00;;;;;;5074667;28;20202;-73
2022/03/02 07:07:25;;;;;;;13.23;7.30;;;9.80;1.00;;;;;;5074915;28;20202;-73
2022/03/02 07:09:55;;;;;;;11.67;5.30;;;9.80;1.00;;;;;;5083022;28;20274;-74
2022/03/02 07:12:22;;;;;;;9.73;5.97;;;9.80;1.00;;;;;;5072935;28;22018;-74
2022/03/02 07:14:51;;;;;;;12.13;5.40;;;9.80;1.00;;;;;;5070346;28;20264;-75
2022/03/02 07:17:18;;;;;;;15.17;5.93;;;9.80;1.00;;;;;;5068730;28;20206;-77
2022/03/02 07:19:45;;;;;;;11.87;6.37;;;9.70;1.00;;;;;;5078205;28;20206;-78
2022/03/02 07:22:16;;;;;;;8.43;5.70;;;9.70;1.00;;;;;;5088947;28;20201;-76
2022/03/02 07:24:51;;;;;;;11.03;6.23;;;9.70;1.00;;;;;;5085013;28;20714;-77
2022/03/02 07:27:20;;;;;;;9.97;6.07;;;9.80;1.00;;;;;;5087066;28;20341;-75
2022/03/02 07:29:50;;;;;;;8.70;5.37;;;9.80;1.00;;;;;;5089752;28;20206;-77
2022/03/02 07:32:22;;;;;;;25.87;7.40;;;9.80;1.00;;;;;;5077078;28;20201;-76
2022/03/02 07:34:54;;;;;;;7.00;4.93;;;9.90;1.00;;;;;;5075224;28;20198;-76
2022/03/02 07:37:21;;;;;;;15.93;7.37;;;9.90;1.00;;;;;;5082446;28;20297;-76
2022/03/02 07:39:49;;;;;;;12.80;5.90;;;10.10;1.00;;;;;;5072914;28;20201;-76
2022/03/02 07:42:16;;;;;;;11.27;5.97;;;10.20;1.00;;;;;;5076287;28;20267;-87
2022/03/02 07:44:45;;;;;;;8.03;5.67;;;10.40;1.00;;;;;;5089172;28;20672;-79
2022/03/02 07:47:12;;;;;;;11.87;6.30;;;10.60;1.00;;;;;;5073760;28;20210;-79
2022/03/02 07:49:39;;;;;;;10.07;6.83;;;10.70;1.00;;;;;;5081042;28;20206;-76
2022/03/02 07:52:08;;;;;;;16.33;6.50;;;10.90;1.00;;;;;;5072304;28;20202;-77
2022/03/02 07:54:37;;;;;;;15.00;7.97;;;10.80;1.00;;;;;;5073202;28;20206;-79
2022/03/02 07:57:06;;;;;;;9.33;5.60;;;10.80;1.00;;;;;;5081644;28;20686;-79
2022/03/02 07:59:37;;;;;;;11.90;5.80;;;10.70;1.00;;;;;;5075963;28;20206;-75
2022/03/02 08:02:08;;;;;;;7.90;4.93;;;11.10;1.00;;;;;;5091461;28;20599;-78
2022/03/02 08:04:36;;;;;;;13.30;6.33;;;11.40;1.00;;;;;;5073828;28;20589;-81
2022/03/02 08:07:04;;;;;;;7.20;5.27;;;11.60;1.00;;;;;;5077180;28;20214;-78
2022/03/02 08:09:31;;;;;;;11.93;5.43;;;11.60;1.00;;;;;;5077745;28;20214;-77
2022/03/02 08:12:00;;;;;;;9.70;5.30;;;11.60;1.00;;;;;;5079775;28;20216;-79
2022/03/02 08:14:28;;;;;;;9.03;5.77;;;11.40;1.00;;;;;;5086469;28;20237;-78
2022/03/02 08:16:55;;;;;;;8.73;5.50;;;11.20;1.00;;;;;;5089460;28;20224;-79
2022/03/02 08:19:25;;;;;;;10.70;5.40;;;11.20;1.00;;;;;;5090812;28;20217;-79
2022/03/02 08:21:56;;;;;;;7.60;4.23;;;11.20;1.00;;;;;;5073636;28;20203;-78
2022/03/02 08:24:26;;;;;;;10.47;5.07;;;11.30;1.00;;;;;;5085563;28;20212;-78
2022/03/02 08:26:58;;;;;;;7.03;5.13;;;11.40;1.00;;;;;;5086301;28;20285;-79
2022/03/02 08:29:27;;;;;;;10.63;5.17;;;11.80;1.00;;;;;;5071689;28;20220;-77
2022/03/02 08:31:58;;;;;;;8.77;5.60;;;11.70;1.00;;;;;;5085977;28;20205;-78
2022/03/02 08:34:27;;;;;;;7.67;4.43;;;12.00;1.00;;;;;;5077708;28;20292;-79
2022/03/02 08:36:55;;;;;;;11.83;5.50;;;11.70;1.00;;;;;;5080006;28;20291;-76
2022/03/02 08:39:22;;;;;;;8.60;5.37;;;11.90;1.00;;;;;;5075322;28;20271;-78
2022/03/02 08:41:50;;;;;;;8.97;5.33;;;11.70;1.00;;;;;;5092387;28;20618;-79
2022/03/02 08:44:17;;;;;;;10.80;5.90;;;11.40;1.00;;;;;;5083171;28;20620;-76
2022/03/02 08:46:46;;;;;;;12.07;6.90;;;11.30;1.00;;;;;;5076365;28;20214;-77
2022/03/02 08:49:13;;;;;;;9.73;5.13;;;11.40;1.00;;;;;;5073305;28;20214;-76
2022/03/02 08:51:43;;;;;;;9.13;4.90;;;11.30;1.00;;;;;;5083952;28;20207;-77
2022/03/02 08:54:13;;;;;;;8.20;5.23;;;11.40;1.00;;;;;;5071610;28;20251;-80
2022/03/02 08:56:41;;;;;;;6.57;5.23;;;11.40;1.00;;;;;;5083502;28;20237;-81
2022/03/02 08:59:09;;;;;;;9.43;5.43;;;11.40;1.00;;;;;;5087593;28;20581;-80
2022/03/02 09:01:40;;;;;;;14.63;5.87;;;11.40;1.00;;;;;;5092606;28;20258;-77
2022/03/02 09:04:07;;;;;;;9.27;5.10;;;11.50;1.00;;;;;;5078233;28;20665;-80
2022/03/02 09:06:36;;;;;;;18.80;6.27;;;11.60;1.00;;;;;;5075025;28;20202;-77
2022/03/02 09:09:09;;;;;;;11.33;5.77;;;11.60;1.00;;;;;;5083026;28;20202;-80
2022/03/02 09:11:38;;;;;;;8.90;4.60;;;11.60;1.00;;;;;;5081243;28;20588;-79
2022/03/02 09:14:05;;;;;;;7.30;4.47;;;11.90;1.00;;;;;;5087584;28;20213;-78
2022/03/02 09:16:32;;;;;;;12.03;5.10;;;11.90;1.00;;;;;;5086436;28;20247;-80
2022/03/02 09:18:59;;;;;;;6.27;4.80;;;11.90;1.00;;;;;;5090927;28;20197;-75
2022/03/02 09:21:27;;;;;;;11.60;4.50;;;11.90;1.00;;;;;;5089765;28;20197;-77
2022/03/02 09:23:56;;;;;;;6.67;4.60;;;12.00;1.00;;;;;;5080908;28;20233;-79
2022/03/02 09:26:26;;;;;;;7.37;4.87;;;12.30;1.00;;;;;;5087293;28;20269;-75
2022/03/02 09:28:53;;;;;;;8.60;4.57;;;12.70;1.00;;;;;;5090857;28;20198;-77
2022/03/02 09:31:23;;;;;;;7.93;4.47;;;12.50;1.00;;;;;;5081609;28;20206;-84
2022/03/02 09:33:54;;;;;;;8.88;3.90;;;12.70;1.00;;;;;;5069832;28;20206;-79
2022/03/02 09:36:23;;;;;;;10.95;3.55;;;12.70;1.00;;;;;;5080212;28;20226;-78
2022/03/02 09:38:51;;;;;;;6.57;3.97;;;12.60;1.00;;;;;;5074179;28;20553;-78
2022/03/02 09:41:25;;;;;;;6.53;4.35;;;12.60;1.00;;;;;;5086421;28;20289;-77
2022/03/02 09:43:56;;;;;;;14.02;5.70;;;12.80;1.00;;;;;;5079970;28;20212;-75
2022/03/02 09:46:32;;;;;;;12.00;6.03;;;12.90;1.00;;;;;;5083005;28;20240;-78
2022/03/02 09:49:05;;;;;;;7.67;3.80;;;13.00;1.00;;;;;;5077360;28;20628;-76
2022/03/02 09:51:33;;;;;;;7.13;4.05;;;13.10;1.00;;;;;;5080188;28;20689;-76
2022/03/02 09:54:03;;;;;;;6.75;3.72;;;12.90;1.00;;;;;;5070652;28;20212;-81
2022/03/02 09:56:35;;;;;;;6.72;3.75;;;12.80;1.00;;;;;;5070785;28;20230;-77
2022/03/02 09:59:06;;;;;;;12.45;4.05;;;12.60;1.00;;;;;;5080250;28;20236;-79
2022/03/02 10:01:35;;;;;;;9.73;4.10;;;12.60;1.00;;;;;;5070508;28;20264;-85
2022/03/02 10:04:13;;;;;;;6.80;4.70;;;12.70;1.00;;;;;;5069834;28;20209;-80
2022/03/02 10:06:44;;;;;;;5.00;4.38;;;12.90;1.00;;;;;;5082848;28;20210;-84
2022/03/02 10:09:12;;;;;;;6.28;3.63;;;12.80;1.00;;;;;;5075137;28;20255;-79
2022/03/02 10:11:43;;;;;;;8.88;3.42;;;12.70;1.00;;;;;;5074487;28;20229;-78
2022/03/02 10:14:11;;;;;;;13.20;4.38;;;12.80;1.00;;;;;;5071568;28;20301;-77
2022/03/02 10:16:43;;;;;;;6.30;4.20;;;12.60;1.00;;;;;;5073855;28;20233;-74
2022/03/02 10:19:20;;;;;;;7.05;3.70;;;12.50;1.00;;;;;;5071407;28;20226;-77
2022/03/02 10:22:06;;;;;;;6.25;2.85;;;12.40;1.00;;;;;;5071157;28;20210;-81
2022/03/02 10:24:41;;;;;;;6.97;4.03;;;12.30;1.00;;;;;;5074358;28;20212;-77
2022/03/02 10:27:09;;;;;;;7.00;3.70;;;12.30;1.00;;;;;;5085750;28;20297;-79
2022/03/02 10:30:02;;;;;;;11.65;5.95;;;12.50;1.00;;;;;;5070977;28;20628;-76
2022/03/02 10:32:35;;;;;;;9.50;3.90;;;12.40;1.00;;;;;;5082089;28;20206;-75
2022/03/02 10:35:06;;;;;;;5.20;3.47;;;12.40;1.00;;;;;;5064809;28;20204;-76
2022/03/02 10:37:36;;;;;;;4.70;4.13;;;12.40;1.00;;;;;;5069682;28;20236;-78
2022/03/02 10:40:12;;;;;;;11.43;4.35;;;12.50;1.00;;;;;;5069364;28;20252;-76
2022/03/02 10:42:42;;;;;;;9.05;3.55;;;12.50;1.00;;;;;;5069558;28;20206;-77
2022/03/02 10:45:19;;;;;;;4.53;3.50;;;12.40;1.00;;;;;;5070563;28;20251;-78
2022/03/02 10:47:59;;;;;;;4.47;2.60;;;12.60;1.00;;;;;;5070594;28;20258;-78
2022/03/02 10:50:28;;;;;;;7.97;2.97;;;12.70;1.00;;;;;;5070588;28;20698;-78
2022/03/02 10:52:57;;;;;;;6.97;2.77;;;13.00;1.00;;;;;;5069716;28;20205;-77
2022/03/02 10:55:25;;;;;;;6.77;3.50;;;13.40;1.00;;;;;;5070998;28;20662;-80
2022/03/02 10:57:55;;;;;;;4.85;3.65;;;13.60;1.00;;;;;;5070476;28;20243;-76
2022/03/02 11:00:25;;;;;;;7.47;3.55;;;13.40;1.00;;;;;;5063716;28;20293;-78
2022/03/02 11:02:58;;;;;;;4.45;3.10;;;13.50;1.00;;;;;;5064716;28;20216;-77
2022/03/02 11:05:28;;;;;;;3.80;2.85;;;13.50;1.00;;;;;;5072483;28;20579;-78
2022/03/02 11:07:55;;;;;;;4.32;2.70;;;13.50;1.00;;;;;;5072510;28;20214;-78
2022/03/02 11:10:30;;;;;;;7.72;3.88;;;13.60;1.00;;;;;;5079762;28;20624;-79
2022/03/02 11:12:57;;;;;;;7.03;3.58;;;13.70;1.00;;;;;;5067641;28;20197;-76
2022/03/02 11:15:26;;;;;;;5.15;3.42;;;13.80;1.00;;;;;;5078426;28;20208;-77
2022/03/02 11:17:55;;;;;;;5.07;2.88;;;13.50;1.00;;;;;;5075991;28;20237;-76
2022/03/02 11:20:24;;;;;;;7.22;3.88;;;13.60;1.00;;;;;;5062355;28;20260;-75
2022/03/02 11:22:56;;;;;;;4.25;2.75;;;13.50;1.00;;;;;;5070094;28;20627;-75
2022/03/02 11:25:44;;;;;;;6.57;3.30;;;13.40;1.00;;;;;;5089481;28;20202;-76
2022/03/02 11:28:16;;;;;;;5.57;3.70;;;13.30;1.00;;;;;;5094027;28;20207;-76
2022/03/02 11:30:49;;;;;;;5.90;2.67;;;13.60;1.00;;;;;;5094321;28;20296;-78
2022/03/02 11:33:17;;;;;;;5.28;3.42;;;13.30;1.00;;;;;;5087476;28;20206;-76
2022/03/02 11:35:46;;;;;;;7.63;3.28;;;13.10;1.00;;;;;;5078573;28;20266;-76
2022/03/02 11:38:19;;;;;;;7.88;3.05;;;13.00;1.00;;;;;;5093355;28;20736;-76
2022/03/02 11:40:48;;;;;;;5.03;2.63;;;13.00;1.00;;;;;;5094025;28;20198;-75
2022/03/02 11:43:17;;;;;;;6.75;3.05;;;12.90;1.00;;;;;;5075060;28;20214;-77
2022/03/02 11:45:44;;;;;;;7.25;3.20;;;12.90;1.00;;;;;;5074096;28;20206;-77
2022/03/02 11:48:15;;;;;;;6.18;3.20;;;13.00;1.00;;;;;;5073599;28;20247;-76
2022/03/02 11:51:06;;;;;;;9.60;2.83;;;13.00;1.00;;;;;;5073619;28;20255;-79
2022/03/02 11:53:34;;;;;;;7.70;2.60;;;13.10;1.00;;;;;;5073890;28;20206;-76
2022/03/02 11:56:03;;;;;;;6.32;3.15;;;13.10;1.00;;;;;;5073575;28;20202;-75
2022/03/02 11:58:53;;;;;;;4.53;2.00;;;13.00;1.00;;;;;;5073724;28;20292;-75
2022/03/02 12:01:20;;;;;;;5.45;2.38;;;12.90;1.00;;;;;;5073983;28;20218;-76
2022/03/02 12:03:57;;;;;;;9.82;3.38;;;13.00;1.00;;;;;;5073993;28;20210;-76
2022/03/02 12:06:25;;;;;;;11.35;3.40;;;13.20;1.00;;;;;;5073354;28;20206;-75
2022/03/02 12:08:53;;;;;;;8.98;3.25;;;13.00;1.00;;;;;;5073800;28;20285;-76
2022/03/02 12:11:25;;;;;;;3.50;2.95;;;12.70;1.00;;;;;;5074016;28;20289;-75
2022/03/02 12:14:06;;;;;;;6.57;3.58;;;12.70;1.00;;;;;;5073020;28;20195;-75
2022/03/02 12:16:38;;;;;;;4.50;2.88;;;12.50;1.00;;;;;;5069930;28;20288;-76
2022/03/02 12:19:19;;;;;;;4.10;3.53;;;12.50;1.00;;;;;;5069340;28;20657;-76
2022/03/02 12:21:46;;;;;;;7.00;4.15;;;12.50;1.00;;;;;;5083747;28;20605;-75
2022/03/02 12:24:13;;;;;;;5.03;2.95;;;12.60;1.00;;;;;;5086342;28;20225;-76
2022/03/02 12:26:49;;;;;;;6.07;3.45;;;12.60;1.00;;;;;;5085673;28;20257;-76
2022/03/02 12:29:17;;;;;;;4.40;3.20;;;12.70;1.00;;;;;;5071099;28;20198;-76
2022/03/02 12:31:47;;;;;;;7.43;3.25;;;12.60;1.00;;;;;;5077084;28;20264;-77
2022/03/02 12:34:16;;;;;;;7.20;4.43;;;12.60;1.00;;;;;;5070570;28;20213;-79
2022/03/02 12:36:44;;;;;;;7.60;3.92;;;12.70;1.00;;;;;;5075493;28;20210;-77
2022/03/02 12:39:11;;;;;;;5.68;3.80;;;12.80;1.00;;;;;;5071789;28;20592;-78
2022/03/02 12:41:38;;;;;;;5.18;3.75;;;12.90;1.00;;;;;;5088340;28;20205;-78
2022/03/02 12:44:06;;;;;;;13.25;3.78;;;12.70;1.00;;;;;;5073411;28;20210;-77
2022/03/02 12:46:36;;;;;;;7.15;3.97;;;12.50;1.00;;;;;;5076668;28;20225;-75
2022/03/02 12:49:04;;;;;;;7.40;4.78;;;12.40;1.00;;;;;;5087757;28;20677;-75
2022/03/02 12:51:34;;;;;;;6.85;3.92;;;12.40;1.00;;;;;;5079913;28;20263;-78
2022/03/02 12:54:01;;;;;;;11.23;4.57;;;12.30;1.00;;;;;;5076341;28;20198;-76
2022/03/02 12:56:28;;;;;;;12.77;3.92;;;12.30;1.00;;;;;;5085010;28;20624;-76
2022/03/02 12:58:57;;;;;;;6.72;4.13;;;12.30;1.00;;;;;;5076509;28;20282;-82
2022/03/02 13:01:26;;;;;;;7.20;5.82;;;12.30;1.00;;;;;;5069853;28;20284;-79
2022/03/02 13:03:56;;;;;;;4.78;4.15;;;12.30;1.00;;;;;;5066048;28;20606;-79
2022/03/02 13:06:29;;;;;;;6.38;3.92;;;12.30;1.00;;;;;;5078501;28;20202;-78